sensor_id;sensor_type;location;lat;lon;timestamp;temperature;humidity
17715;DHT22;8977;50.902;4.314;2023-02-28T00:00:33;6.40;99.90
17715;DHT22;8977;50.902;4.314;2023-02-28T00:03:01;6.30;99.90
17715;DHT22;8977;50.902;4.314;2023-02-28T00:05:28;6.30;99.90
17715;DHT22;8977;50.902;4.314;2023-02-28T00:07:56;6.30;99.90
17715;DHT22;8977;50.902;4.314;2023-02-28T00:10:26;6.30;99.90
17715;DHT22;8977;50.902;4.314;2023-02-28T00:12:59;6.30;99.90
17715;DHT22;8977;50.902;4.314;2023-02-28T00:15:27;6.30;99.90
17715;DHT22;8977;50.902;4.314;2023-02-28T00:17:54;6.30;99.90
17715;DHT22;8977;50.902;4.314;2023-02-28T00:20:21;6.30;99.90
17715;DHT22;8977;50.902;4.314;2023-02-28T00:22:51;6.20;99.90
17715;DHT22;8977;50.902;4.314;2023-02-28T00:25:19;6.20;99.90
17715;DHT22;8977;50.902;4.314;2023-02-28T00:27:49;6.20;99.90
17715;DHT22;8977;50.902;4.314;2023-02-28T00:30:18;6.20;99.90
17715;DHT22;8977;50.902;4.314;2023-02-28T00:32:45;6.20;99.90
17715;DHT22;8977;50.902;4.314;2023-02-28T00:35:12;6.20;99.90
17715;DHT22;8977;50.902;4.314;2023-02-28T00:37:39;6.20;99.90
17715;DHT22;8977;50.902;4.314;2023-02-28T00:40:07;6.20;99.90
17715;DHT22;8977;50.902;4.314;2023-02-28T00:42:38;6.20;99.90
17715;DHT22;8977;50.902;4.314;2023-02-28T00:45:07;6.20;99.90
17715;DHT22;8977;50.902;4.314;2023-02-28T00:47:34;6.20;99.90
17715;DHT22;8977;50.902;4.314;2023-02-28T00:50:02;6.20;99.90
17715;DHT22;8977;50.902;4.314;2023-02-28T00:52:29;6.20;99.90
17715;DHT22;8977;50.902;4.314;2023-02-28T00:54:56;6.20;99.90
17715;DHT22;8977;50.902;4.314;2023-02-28T00:57:23;6.20;99.90
17715;DHT22;8977;50.902;4.314;2023-02-28T00:59:50;6.20;99.90
17715;DHT22;8977;50.902;4.314;2023-02-28T01:02:21;6.10;99.90
17715;DHT22;8977;50.902;4.314;2023-02-28T01:04:48;6.10;99.90
17715;DHT22;8977;50.902;4.314;2023-02-28T01:07:15;6.10;99.90
17715;DHT22;8977;50.902;4.314;2023-02-28T01:09:42;6.00;99.90
17715;DHT22;8977;50.902;4.314;2023-02-28T01:12:09;6.00;99.90
17715;DHT22;8977;50.902;4.314;2023-02-28T01:14:36;6.00;99.90
17715;DHT22;8977;50.902;4.314;2023-02-28T01:17:03;6.00;99.90
17715;DHT22;8977;50.902;4.314;2023-02-28T01:19:31;5.90;99.90
17715;DHT22;8977;50.902;4.314;2023-02-28T01:22:00;5.90;99.90
17715;DHT22;8977;50.902;4.314;2023-02-28T01:24:28;6.00;99.90
17715;DHT22;8977;50.902;4.314;2023-02-28T01:26:57;6.00;99.90
17715;DHT22;8977;50.902;4.314;2023-02-28T01:29:25;6.00;99.90
17715;DHT22;8977;50.902;4.314;2023-02-28T01:31:52;5.90;99.90
17715;DHT22;8977;50.902;4.314;2023-02-28T01:34:19;6.00;99.90
17715;DHT22;8977;50.902;4.314;2023-02-28T01:36:47;5.90;99.90
17715;DHT22;8977;50.902;4.314;2023-02-28T01:39:14;6.00;99.90
17715;DHT22;8977;50.902;4.314;2023-02-28T01:41:41;5.90;99.90
17715;DHT22;8977;50.902;4.314;2023-02-28T01:47:09;6.00;99.90
17715;DHT22;8977;50.902;4.314;2023-02-28T01:49:36;5.90;99.90
17715;DHT22;8977;50.902;4.314;2023-02-28T01:52:05;5.90;99.90
17715;DHT22;8977;50.902;4.314;2023-02-28T01:54:34;5.90;99.90
17715;DHT22;8977;50.902;4.314;2023-02-28T01:57:04;5.80;99.90
17715;DHT22;8977;50.902;4.314;2023-02-28T01:59:35;5.80;99.90
17715;DHT22;8977;50.902;4.314;2023-02-28T02:02:04;5.90;99.90
17715;DHT22;8977;50.902;4.314;2023-02-28T02:04:36;5.90;99.90
17715;DHT22;8977;50.902;4.314;2023-02-28T02:07:05;5.90;99.90
17715;DHT22;8977;50.902;4.314;2023-02-28T02:09:32;6.20;99.90
17715;DHT22;8977;50.902;4.314;2023-02-28T02:12:07;6.10;99.90
17715;DHT22;8977;50.902;4.314;2023-02-28T02:14:46;6.00;99.90
17715;DHT22;8977;50.902;4.314;2023-02-28T02:17:25;5.90;99.90
17715;DHT22;8977;50.902;4.314;2023-02-28T02:20:28;5.90;99.90
17715;DHT22;8977;50.902;4.314;2023-02-28T02:23:22;5.90;99.90
17715;DHT22;8977;50.902;4.314;2023-02-28T02:25:55;5.80;99.90
17715;DHT22;8977;50.902;4.314;2023-02-28T02:28:41;5.80;99.90
17715;DHT22;8977;50.902;4.314;2023-02-28T02:31:33;5.80;99.90
17715;DHT22;8977;50.902;4.314;2023-02-28T02:34:25;5.80;99.90
17715;DHT22;8977;50.902;4.314;2023-02-28T02:37:03;5.70;99.90
17715;DHT22;8977;50.902;4.314;2023-02-28T02:39:36;5.70;99.90
17715;DHT22;8977;50.902;4.314;2023-02-28T02:42:13;5.70;99.90
17715;DHT22;8977;50.902;4.314;2023-02-28T02:44:46;5.60;99.90
17715;DHT22;8977;50.902;4.314;2023-02-28T02:47:17;5.60;99.90
17715;DHT22;8977;50.902;4.314;2023-02-28T02:49:49;5.60;99.90
17715;DHT22;8977;50.902;4.314;2023-02-28T02:52:21;5.60;99.90
17715;DHT22;8977;50.902;4.314;2023-02-28T02:54:50;5.60;99.90
17715;DHT22;8977;50.902;4.314;2023-02-28T02:57:23;5.60;99.90
17715;DHT22;8977;50.902;4.314;2023-02-28T02:59:53;5.60;99.90
17715;DHT22;8977;50.902;4.314;2023-02-28T03:02:21;5.60;99.90
17715;DHT22;8977;50.902;4.314;2023-02-28T03:04:51;5.60;99.90
17715;DHT22;8977;50.902;4.314;2023-02-28T03:07:19;5.60;99.90
17715;DHT22;8977;50.902;4.314;2023-02-28T03:09:51;5.60;99.90
17715;DHT22;8977;50.902;4.314;2023-02-28T03:12:19;5.60;99.90
17715;DHT22;8977;50.902;4.314;2023-02-28T03:14:56;5.50;99.90
17715;DHT22;8977;50.902;4.314;2023-02-28T03:17:44;5.50;99.90
17715;DHT22;8977;50.902;4.314;2023-02-28T03:20:26;5.50;99.90
17715;DHT22;8977;50.902;4.314;2023-02-28T03:23:01;5.50;99.90
17715;DHT22;8977;50.902;4.314;2023-02-28T03:25:33;5.40;99.90
17715;DHT22;8977;50.902;4.314;2023-02-28T03:28:08;5.40;99.90
17715;DHT22;8977;50.902;4.314;2023-02-28T03:30:42;5.40;99.90
17715;DHT22;8977;50.902;4.314;2023-02-28T03:33:15;5.40;99.90
17715;DHT22;8977;50.902;4.314;2023-02-28T03:35:48;5.40;99.90
17715;DHT22;8977;50.902;4.314;2023-02-28T03:38:20;5.30;99.90
17715;DHT22;8977;50.902;4.314;2023-02-28T03:40:51;5.30;99.90
17715;DHT22;8977;50.902;4.314;2023-02-28T03:43:24;5.40;99.90
17715;DHT22;8977;50.902;4.314;2023-02-28T03:45:55;5.40;99.90
17715;DHT22;8977;50.902;4.314;2023-02-28T03:48:27;5.30;99.90
17715;DHT22;8977;50.902;4.314;2023-02-28T03:50:59;5.30;99.90
17715;DHT22;8977;50.902;4.314;2023-02-28T03:53:30;5.30;99.90
17715;DHT22;8977;50.902;4.314;2023-02-28T03:56:01;5.30;99.90
17715;DHT22;8977;50.902;4.314;2023-02-28T03:58:35;5.20;99.90
17715;DHT22;8977;50.902;4.314;2023-02-28T04:01:07;5.30;99.90
17715;DHT22;8977;50.902;4.314;2023-02-28T04:03:35;5.20;99.90
17715;DHT22;8977;50.902;4.314;2023-02-28T04:06:04;5.20;99.90
17715;DHT22;8977;50.902;4.314;2023-02-28T04:08:32;5.20;99.90
17715;DHT22;8977;50.902;4.314;2023-02-28T04:11:03;5.20;99.90
17715;DHT22;8977;50.902;4.314;2023-02-28T04:13:31;5.30;99.90
17715;DHT22;8977;50.902;4.314;2023-02-28T04:15:58;5.20;99.90
17715;DHT22;8977;50.902;4.314;2023-02-28T04:18:25;5.20;99.90
17715;DHT22;8977;50.902;4.314;2023-02-28T04:20:52;5.30;99.90
17715;DHT22;8977;50.902;4.314;2023-02-28T04:23:20;5.30;99.90
17715;DHT22;8977;50.902;4.314;2023-02-28T04:25:47;5.20;99.90
17715;DHT22;8977;50.902;4.314;2023-02-28T04:28:16;5.20;99.90
17715;DHT22;8977;50.902;4.314;2023-02-28T04:30:43;5.20;99.90
17715;DHT22;8977;50.902;4.314;2023-02-28T04:33:11;5.20;99.90
17715;DHT22;8977;50.902;4.314;2023-02-28T04:35:38;5.10;99.90
17715;DHT22;8977;50.902;4.314;2023-02-28T04:38:05;5.10;99.90
17715;DHT22;8977;50.902;4.314;2023-02-28T04:40:33;5.10;99.90
17715;DHT22;8977;50.902;4.314;2023-02-28T04:43:00;5.10;99.90
17715;DHT22;8977;50.902;4.314;2023-02-28T04:45:28;5.20;99.90
17715;DHT22;8977;50.902;4.314;2023-02-28T04:47:57;5.20;99.90
17715;DHT22;8977;50.902;4.314;2023-02-28T04:50:24;5.30;99.90
17715;DHT22;8977;50.902;4.314;2023-02-28T04:52:51;5.30;99.90
17715;DHT22;8977;50.902;4.314;2023-02-28T04:55:18;5.20;99.90
17715;DHT22;8977;50.902;4.314;2023-02-28T04:57:46;5.30;99.90
17715;DHT22;8977;50.902;4.314;2023-02-28T05:00:15;5.30;99.90
17715;DHT22;8977;50.902;4.314;2023-02-28T05:02:42;5.30;99.90
17715;DHT22;8977;50.902;4.314;2023-02-28T05:05:09;5.30;99.90
17715;DHT22;8977;50.902;4.314;2023-02-28T05:07:37;5.40;99.90
17715;DHT22;8977;50.902;4.314;2023-02-28T05:10:05;5.40;99.90
17715;DHT22;8977;50.902;4.314;2023-02-28T05:12:32;5.30;99.90
17715;DHT22;8977;50.902;4.314;2023-02-28T05:15:03;5.40;99.90
17715;DHT22;8977;50.902;4.314;2023-02-28T05:17:30;5.40;99.90
17715;DHT22;8977;50.902;4.314;2023-02-28T05:19:57;5.40;99.90
17715;DHT22;8977;50.902;4.314;2023-02-28T05:22:24;5.50;99.90
17715;DHT22;8977;50.902;4.314;2023-02-28T05:24:51;5.50;99.90
17715;DHT22;8977;50.902;4.314;2023-02-28T05:27:18;5.50;99.90
17715;DHT22;8977;50.902;4.314;2023-02-28T05:29:44;5.50;99.90
17715;DHT22;8977;50.902;4.314;2023-02-28T05:32:15;5.50;99.90
17715;DHT22;8977;50.902;4.314;2023-02-28T05:34:44;5.50;99.90
17715;DHT22;8977;50.902;4.314;2023-02-28T05:37:12;5.50;99.90
17715;DHT22;8977;50.902;4.314;2023-02-28T05:39:41;5.50;99.90
17715;DHT22;8977;50.902;4.314;2023-02-28T05:42:08;5.60;99.90
17715;DHT22;8977;50.902;4.314;2023-02-28T05:44:35;5.60;99.90
17715;DHT22;8977;50.902;4.314;2023-02-28T05:47:03;5.60;99.90
17715;DHT22;8977;50.902;4.314;2023-02-28T05:49:32;5.60;99.90
17715;DHT22;8977;50.902;4.314;2023-02-28T05:51:59;5.60;99.90
17715;DHT22;8977;50.902;4.314;2023-02-28T05:54:25;5.70;99.90
17715;DHT22;8977;50.902;4.314;2023-02-28T05:56:52;5.60;99.90
17715;DHT22;8977;50.902;4.314;2023-02-28T05:59:19;5.70;99.90
17715;DHT22;8977;50.902;4.314;2023-02-28T06:01:46;5.70;99.90
17715;DHT22;8977;50.902;4.314;2023-02-28T06:04:16;5.80;99.90
17715;DHT22;8977;50.902;4.314;2023-02-28T06:06:46;5.70;99.90
17715;DHT22;8977;50.902;4.314;2023-02-28T06:09:13;5.70;99.90
17715;DHT22;8977;50.902;4.314;2023-02-28T06:11:40;5.70;99.90
17715;DHT22;8977;50.902;4.314;2023-02-28T06:14:09;5.70;99.90
17715;DHT22;8977;50.902;4.314;2023-02-28T06:16:39;5.60;99.90
17715;DHT22;8977;50.902;4.314;2023-02-28T06:19:06;5.70;99.90
17715;DHT22;8977;50.902;4.314;2023-02-28T06:21:33;5.70;99.90
17715;DHT22;8977;50.902;4.314;2023-02-28T06:24:02;5.70;99.90
17715;DHT22;8977;50.902;4.314;2023-02-28T06:26:29;5.70;99.90
17715;DHT22;8977;50.902;4.314;2023-02-28T06:28:56;5.70;99.90
17715;DHT22;8977;50.902;4.314;2023-02-28T06:31:23;5.70;99.90
17715;DHT22;8977;50.902;4.314;2023-02-28T06:33:51;5.60;99.90
17715;DHT22;8977;50.902;4.314;2023-02-28T06:36:18;5.70;99.90
17715;DHT22;8977;50.902;4.314;2023-02-28T06:38:45;5.60;99.90
17715;DHT22;8977;50.902;4.314;2023-02-28T06:41:18;5.70;99.90
17715;DHT22;8977;50.902;4.314;2023-02-28T06:43:45;5.70;99.90
17715;DHT22;8977;50.902;4.314;2023-02-28T06:46:13;5.70;99.90
17715;DHT22;8977;50.902;4.314;2023-02-28T06:48:42;5.70;99.90
17715;DHT22;8977;50.902;4.314;2023-02-28T06:51:10;5.70;99.90
17715;DHT22;8977;50.902;4.314;2023-02-28T06:53:38;5.80;99.90
17715;DHT22;8977;50.902;4.314;2023-02-28T06:56:07;5.70;99.90
17715;DHT22;8977;50.902;4.314;2023-02-28T06:58:35;5.80;99.90
17715;DHT22;8977;50.902;4.314;2023-02-28T07:01:03;5.80;99.90
17715;DHT22;8977;50.902;4.314;2023-02-28T07:03:30;5.80;99.90
17715;DHT22;8977;50.902;4.314;2023-02-28T07:06:26;5.80;99.90
17715;DHT22;8977;50.902;4.314;2023-02-28T07:08:53;5.90;99.90
17715;DHT22;8977;50.902;4.314;2023-02-28T07:11:21;5.90;99.90
17715;DHT22;8977;50.902;4.314;2023-02-28T07:13:52;5.80;99.90
17715;DHT22;8977;50.902;4.314;2023-02-28T07:16:24;5.90;99.90
17715;DHT22;8977;50.902;4.314;2023-02-28T07:18:52;5.90;99.90
17715;DHT22;8977;50.902;4.314;2023-02-28T07:21:20;5.90;99.90
17715;DHT22;8977;50.902;4.314;2023-02-28T07:23:50;5.90;99.90
17715;DHT22;8977;50.902;4.314;2023-02-28T07:26:18;6.00;99.90
17715;DHT22;8977;50.902;4.314;2023-02-28T07:28:47;6.00;99.90
17715;DHT22;8977;50.902;4.314;2023-02-28T07:31:16;6.00;99.90
17715;DHT22;8977;50.902;4.314;2023-02-28T07:33:43;6.10;99.90
17715;DHT22;8977;50.902;4.314;2023-02-28T07:36:12;6.00;99.90
17715;DHT22;8977;50.902;4.314;2023-02-28T07:38:41;6.00;99.90
17715;DHT22;8977;50.902;4.314;2023-02-28T07:41:08;6.00;99.90
17715;DHT22;8977;50.902;4.314;2023-02-28T07:43:35;6.00;99.90
17715;DHT22;8977;50.902;4.314;2023-02-28T07:46:03;6.00;99.90
17715;DHT22;8977;50.902;4.314;2023-02-28T07:48:32;6.10;99.90
17715;DHT22;8977;50.902;4.314;2023-02-28T07:50:59;6.10;99.90
17715;DHT22;8977;50.902;4.314;2023-02-28T07:53:27;6.10;99.90
17715;DHT22;8977;50.902;4.314;2023-02-28T07:55:55;6.10;99.90
17715;DHT22;8977;50.902;4.314;2023-02-28T07:58:23;6.10;99.90
17715;DHT22;8977;50.902;4.314;2023-02-28T08:00:50;6.20;99.90
17715;DHT22;8977;50.902;4.314;2023-02-28T08:03:17;6.20;99.90
17715;DHT22;8977;50.902;4.314;2023-02-28T08:05:46;6.20;99.90
17715;DHT22;8977;50.902;4.314;2023-02-28T08:08:13;6.20;99.90
17715;DHT22;8977;50.902;4.314;2023-02-28T08:10:40;6.30;99.90
17715;DHT22;8977;50.902;4.314;2023-02-28T08:13:07;6.30;99.90
17715;DHT22;8977;50.902;4.314;2023-02-28T08:15:34;6.30;99.90
17715;DHT22;8977;50.902;4.314;2023-02-28T08:18:01;6.40;99.90
17715;DHT22;8977;50.902;4.314;2023-02-28T08:20:28;6.50;99.90
17715;DHT22;8977;50.902;4.314;2023-02-28T08:22:57;6.50;99.90
17715;DHT22;8977;50.902;4.314;2023-02-28T08:25:24;6.50;99.90
17715;DHT22;8977;50.902;4.314;2023-02-28T08:27:51;6.50;99.90
17715;DHT22;8977;50.902;4.314;2023-02-28T08:30:18;6.60;99.90
17715;DHT22;8977;50.902;4.314;2023-02-28T08:32:45;6.60;99.90
17715;DHT22;8977;50.902;4.314;2023-02-28T08:35:13;6.60;99.90
17715;DHT22;8977;50.902;4.314;2023-02-28T08:37:40;6.60;99.90
17715;DHT22;8977;50.902;4.314;2023-02-28T08:40:10;6.60;99.90
17715;DHT22;8977;50.902;4.314;2023-02-28T08:42:39;6.60;99.90
17715;DHT22;8977;50.902;4.314;2023-02-28T08:45:06;6.60;99.90
17715;DHT22;8977;50.902;4.314;2023-02-28T08:47:33;6.70;99.90
17715;DHT22;8977;50.902;4.314;2023-02-28T08:50:00;6.80;99.90
17715;DHT22;8977;50.902;4.314;2023-02-28T08:52:27;6.80;99.90
17715;DHT22;8977;50.902;4.314;2023-02-28T08:54:54;6.90;99.90
17715;DHT22;8977;50.902;4.314;2023-02-28T08:57:23;6.90;99.90
17715;DHT22;8977;50.902;4.314;2023-02-28T08:59:51;7.00;99.90
17715;DHT22;8977;50.902;4.314;2023-02-28T09:02:18;7.00;99.90
17715;DHT22;8977;50.902;4.314;2023-02-28T09:04:45;7.00;99.90
17715;DHT22;8977;50.902;4.314;2023-02-28T09:07:19;7.00;99.90
17715;DHT22;8977;50.902;4.314;2023-02-28T09:10:00;7.00;99.80
17715;DHT22;8977;50.902;4.314;2023-02-28T09:12:33;6.90;99.40
17715;DHT22;8977;50.902;4.314;2023-02-28T09:15:00;7.00;99.50
17715;DHT22;8977;50.902;4.314;2023-02-28T09:17:27;6.90;99.30
17715;DHT22;8977;50.902;4.314;2023-02-28T09:19:54;6.90;99.60
17715;DHT22;8977;50.902;4.314;2023-02-28T09:22:21;7.00;99.30
17715;DHT22;8977;50.902;4.314;2023-02-28T09:24:48;7.10;99.00
17715;DHT22;8977;50.902;4.314;2023-02-28T09:27:15;7.00;99.00
17715;DHT22;8977;50.902;4.314;2023-02-28T09:29:43;7.00;98.80
17715;DHT22;8977;50.902;4.314;2023-02-28T09:32:10;7.00;98.70
17715;DHT22;8977;50.902;4.314;2023-02-28T09:34:37;7.10;98.90
17715;DHT22;8977;50.902;4.314;2023-02-28T09:37:04;7.10;98.80
17715;DHT22;8977;50.902;4.314;2023-02-28T09:39:31;7.40;98.50
17715;DHT22;8977;50.902;4.314;2023-02-28T09:41:58;7.30;98.00
17715;DHT22;8977;50.902;4.314;2023-02-28T09:44:30;7.40;98.00
17715;DHT22;8977;50.902;4.314;2023-02-28T09:47:12;7.50;97.90
17715;DHT22;8977;50.902;4.314;2023-02-28T09:49:42;7.50;97.70
17715;DHT22;8977;50.902;4.314;2023-02-28T09:52:14;7.40;97.40
17715;DHT22;8977;50.902;4.314;2023-02-28T09:54:42;7.40;97.50
17715;DHT22;8977;50.902;4.314;2023-02-28T09:57:17;7.30;97.60
17715;DHT22;8977;50.902;4.314;2023-02-28T09:59:54;7.30;97.80
17715;DHT22;8977;50.902;4.314;2023-02-28T10:02:48;7.40;97.80
17715;DHT22;8977;50.902;4.314;2023-02-28T10:05:20;7.50;97.70
17715;DHT22;8977;50.902;4.314;2023-02-28T10:07:58;7.50;97.60
17715;DHT22;8977;50.902;4.314;2023-02-28T10:10:29;7.60;97.80
17715;DHT22;8977;50.902;4.314;2023-02-28T10:13:01;7.60;97.50
17715;DHT22;8977;50.902;4.314;2023-02-28T10:15:31;7.70;97.50
17715;DHT22;8977;50.902;4.314;2023-02-28T10:18:04;7.80;97.10
17715;DHT22;8977;50.902;4.314;2023-02-28T10:20:34;7.80;97.10
17715;DHT22;8977;50.902;4.314;2023-02-28T10:23:07;7.80;97.20
17715;DHT22;8977;50.902;4.314;2023-02-28T10:25:37;7.90;97.10
17715;DHT22;8977;50.902;4.314;2023-02-28T10:28:10;7.90;96.60
17715;DHT22;8977;50.902;4.314;2023-02-28T10:30:40;7.90;96.60
17715;DHT22;8977;50.902;4.314;2023-02-28T10:33:17;8.00;96.90
17715;DHT22;8977;50.902;4.314;2023-02-28T10:35:45;8.10;96.80
17715;DHT22;8977;50.902;4.314;2023-02-28T10:38:16;8.10;96.90
17715;DHT22;8977;50.902;4.314;2023-02-28T10:40:43;8.10;97.10
17715;DHT22;8977;50.902;4.314;2023-02-28T10:43:20;8.20;96.80
17715;DHT22;8977;50.902;4.314;2023-02-28T10:45:58;8.20;96.50
17715;DHT22;8977;50.902;4.314;2023-02-28T10:48:32;8.30;96.30
17715;DHT22;8977;50.902;4.314;2023-02-28T10:50:59;8.30;95.50
17715;DHT22;8977;50.902;4.314;2023-02-28T10:53:39;8.30;95.60
17715;DHT22;8977;50.902;4.314;2023-02-28T10:56:16;8.20;95.50
17715;DHT22;8977;50.902;4.314;2023-02-28T10:58:56;8.30;95.90
17715;DHT22;8977;50.902;4.314;2023-02-28T11:01:24;8.40;96.00
17715;DHT22;8977;50.902;4.314;2023-02-28T11:03:53;8.40;95.10
17715;DHT22;8977;50.902;4.314;2023-02-28T11:06:22;8.40;94.50
17715;DHT22;8977;50.902;4.314;2023-02-28T11:08:53;8.40;94.00
17715;DHT22;8977;50.902;4.314;2023-02-28T11:11:27;8.40;94.10
17715;DHT22;8977;50.902;4.314;2023-02-28T11:13:58;8.40;94.20
17715;DHT22;8977;50.902;4.314;2023-02-28T11:16:33;8.30;93.30
17715;DHT22;8977;50.902;4.314;2023-02-28T11:19:03;8.40;94.00
17715;DHT22;8977;50.902;4.314;2023-02-28T11:21:33;8.40;94.30
17715;DHT22;8977;50.902;4.314;2023-02-28T11:24:03;8.40;94.20
17715;DHT22;8977;50.902;4.314;2023-02-28T11:26:41;8.60;94.90
17715;DHT22;8977;50.902;4.314;2023-02-28T11:29:12;8.60;94.20
17715;DHT22;8977;50.902;4.314;2023-02-28T11:31:42;8.70;94.90
17715;DHT22;8977;50.902;4.314;2023-02-28T11:34:34;8.70;94.40
17715;DHT22;8977;50.902;4.314;2023-02-28T11:37:03;8.70;93.70
17715;DHT22;8977;50.902;4.314;2023-02-28T11:39:31;8.70;93.80
17715;DHT22;8977;50.902;4.314;2023-02-28T11:42:09;8.70;93.70
17715;DHT22;8977;50.902;4.314;2023-02-28T11:44:53;8.70;93.80
17715;DHT22;8977;50.902;4.314;2023-02-28T11:47:32;8.80;93.90
17715;DHT22;8977;50.902;4.314;2023-02-28T11:50:24;8.80;94.00
17715;DHT22;8977;50.902;4.314;2023-02-28T11:52:54;8.70;93.70
17715;DHT22;8977;50.902;4.314;2023-02-28T11:55:26;8.70;94.20
17715;DHT22;8977;50.902;4.314;2023-02-28T11:58:17;8.70;93.90
17715;DHT22;8977;50.902;4.314;2023-02-28T12:01:01;8.80;94.30
17715;DHT22;8977;50.902;4.314;2023-02-28T12:03:36;8.90;94.20
17715;DHT22;8977;50.902;4.314;2023-02-28T12:06:16;8.90;94.30
17715;DHT22;8977;50.902;4.314;2023-02-28T12:08:49;8.90;94.20
17715;DHT22;8977;50.902;4.314;2023-02-28T12:11:30;9.00;94.00
17715;DHT22;8977;50.902;4.314;2023-02-28T12:14:21;9.00;93.40
17715;DHT22;8977;50.902;4.314;2023-02-28T12:17:00;9.00;93.90
17715;DHT22;8977;50.902;4.314;2023-02-28T12:19:31;9.00;93.60
17715;DHT22;8977;50.902;4.314;2023-02-28T12:22:25;9.00;93.80
17715;DHT22;8977;50.902;4.314;2023-02-28T12:25:22;9.10;93.40
17715;DHT22;8977;50.902;4.314;2023-02-28T12:27:51;9.10;93.70
17715;DHT22;8977;50.902;4.314;2023-02-28T12:30:22;9.10;93.70
17715;DHT22;8977;50.902;4.314;2023-02-28T12:32:54;9.20;93.40
17715;DHT22;8977;50.902;4.314;2023-02-28T12:35:24;9.10;93.20
17715;DHT22;8977;50.902;4.314;2023-02-28T12:37:57;9.10;93.40
17715;DHT22;8977;50.902;4.314;2023-02-28T12:40:28;9.10;93.60
17715;DHT22;8977;50.902;4.314;2023-02-28T12:43:01;9.10;93.80
17715;DHT22;8977;50.902;4.314;2023-02-28T12:45:39;9.20;94.10
17715;DHT22;8977;50.902;4.314;2023-02-28T12:48:11;9.20;93.70
17715;DHT22;8977;50.902;4.314;2023-02-28T12:50:40;9.30;93.60
17715;DHT22;8977;50.902;4.314;2023-02-28T12:53:13;9.30;93.50
17715;DHT22;8977;50.902;4.314;2023-02-28T12:55:45;9.40;93.20
17715;DHT22;8977;50.902;4.314;2023-02-28T12:58:16;9.40;92.90
17715;DHT22;8977;50.902;4.314;2023-02-28T13:01:02;9.40;92.70
17715;DHT22;8977;50.902;4.314;2023-02-28T13:03:43;9.30;92.50
17715;DHT22;8977;50.902;4.314;2023-02-28T13:06:22;9.30;92.40
17715;DHT22;8977;50.902;4.314;2023-02-28T13:09:08;9.40;92.30
17715;DHT22;8977;50.902;4.314;2023-02-28T13:11:40;9.50;92.30
17715;DHT22;8977;50.902;4.314;2023-02-28T13:14:26;9.50;92.00
17715;DHT22;8977;50.902;4.314;2023-02-28T13:16:59;9.60;92.20
17715;DHT22;8977;50.902;4.314;2023-02-28T13:19:28;9.70;92.50
17715;DHT22;8977;50.902;4.314;2023-02-28T13:21:56;9.80;92.40
17715;DHT22;8977;50.902;4.314;2023-02-28T13:24:40;10.00;91.60
17715;DHT22;8977;50.902;4.314;2023-02-28T13:33:27;10.00;91.90
17715;DHT22;8977;50.902;4.314;2023-02-28T13:36:22;10.10;91.40
17715;DHT22;8977;50.902;4.314;2023-02-28T13:38:51;10.20;91.20
17715;DHT22;8977;50.902;4.314;2023-02-28T13:41:43;10.20;91.10
17715;DHT22;8977;50.902;4.314;2023-02-28T13:44:11;10.10;91.30
17715;DHT22;8977;50.902;4.314;2023-02-28T13:49:38;10.00;91.50
17715;DHT22;8977;50.902;4.314;2023-02-28T13:52:12;9.80;90.80
17715;DHT22;8977;50.902;4.314;2023-02-28T13:54:54;9.70;91.40
17715;DHT22;8977;50.902;4.314;2023-02-28T13:57:31;9.50;92.00
17715;DHT22;8977;50.902;4.314;2023-02-28T14:00:18;9.40;91.70
17715;DHT22;8977;50.902;4.314;2023-02-28T14:06:08;9.20;91.90
17715;DHT22;8977;50.902;4.314;2023-02-28T14:08:36;9.10;91.60
17715;DHT22;8977;50.902;4.314;2023-02-28T14:11:05;9.10;91.70
17715;DHT22;8977;50.902;4.314;2023-02-28T14:13:43;9.10;92.10
17715;DHT22;8977;50.902;4.314;2023-02-28T14:16:13;9.10;92.30
17715;DHT22;8977;50.902;4.314;2023-02-28T14:18:47;9.10;92.30
17715;DHT22;8977;50.902;4.314;2023-02-28T14:21:21;9.10;92.20
17715;DHT22;8977;50.902;4.314;2023-02-28T14:27:12;9.10;91.80
17715;DHT22;8977;50.902;4.314;2023-02-28T14:32:46;9.10;92.10
17715;DHT22;8977;50.902;4.314;2023-02-28T14:35:24;9.00;92.20
17715;DHT22;8977;50.902;4.314;2023-02-28T14:37:54;9.00;92.80
17715;DHT22;8977;50.902;4.314;2023-02-28T14:43:20;8.90;92.50
17715;DHT22;8977;50.902;4.314;2023-02-28T14:45:51;8.90;92.50
17715;DHT22;8977;50.902;4.314;2023-02-28T14:48:19;8.90;92.20
17715;DHT22;8977;50.902;4.314;2023-02-28T14:50:52;8.90;92.20
17715;DHT22;8977;50.902;4.314;2023-02-28T14:53:21;8.90;92.60
17715;DHT22;8977;50.902;4.314;2023-02-28T14:55:49;8.90;92.60
17715;DHT22;8977;50.902;4.314;2023-02-28T14:58:24;8.80;92.80
17715;DHT22;8977;50.902;4.314;2023-02-28T15:00:54;8.80;93.20
17715;DHT22;8977;50.902;4.314;2023-02-28T15:03:23;8.80;93.20
17715;DHT22;8977;50.902;4.314;2023-02-28T15:05:56;8.70;92.90
17715;DHT22;8977;50.902;4.314;2023-02-28T15:08:23;8.60;92.70
17715;DHT22;8977;50.902;4.314;2023-02-28T15:10:53;8.60;92.80
17715;DHT22;8977;50.902;4.314;2023-02-28T15:13:21;8.70;92.70
17715;DHT22;8977;50.902;4.314;2023-02-28T15:15:54;8.70;93.40
17715;DHT22;8977;50.902;4.314;2023-02-28T15:18:27;8.70;93.30
17715;DHT22;8977;50.902;4.314;2023-02-28T15:20:57;8.70;93.00
17715;DHT22;8977;50.902;4.314;2023-02-28T15:23:25;8.70;92.70
17715;DHT22;8977;50.902;4.314;2023-02-28T15:25:53;8.60;93.10
17715;DHT22;8977;50.902;4.314;2023-02-28T15:28:22;8.70;93.40
17715;DHT22;8977;50.902;4.314;2023-02-28T15:30:59;8.70;93.00
17715;DHT22;8977;50.902;4.314;2023-02-28T15:33:28;8.70;93.10
17715;DHT22;8977;50.902;4.314;2023-02-28T15:36:12;8.70;93.40
17715;DHT22;8977;50.902;4.314;2023-02-28T15:38:40;8.80;93.30
17715;DHT22;8977;50.902;4.314;2023-02-28T15:41:22;8.70;93.30
17715;DHT22;8977;50.902;4.314;2023-02-28T15:44:15;8.80;93.50
17715;DHT22;8977;50.902;4.314;2023-02-28T15:46:44;8.90;93.40
17715;DHT22;8977;50.902;4.314;2023-02-28T15:49:18;8.90;93.70
17715;DHT22;8977;50.902;4.314;2023-02-28T15:51:48;8.90;94.30
17715;DHT22;8977;50.902;4.314;2023-02-28T15:54:19;9.30;93.70
17715;DHT22;8977;50.902;4.314;2023-02-28T15:56:49;9.60;93.10
17715;DHT22;8977;50.902;4.314;2023-02-28T15:59:21;9.80;93.10
17715;DHT22;8977;50.902;4.314;2023-02-28T16:02:03;9.80;92.70
17715;DHT22;8977;50.902;4.314;2023-02-28T16:04:30;9.80;92.70
17715;DHT22;8977;50.902;4.314;2023-02-28T16:07:04;9.80;92.80
17715;DHT22;8977;50.902;4.314;2023-02-28T16:09:32;9.70;92.80
17715;DHT22;8977;50.902;4.314;2023-02-28T16:12:00;9.50;92.70
17715;DHT22;8977;50.902;4.314;2023-02-28T16:14:30;9.50;92.90
17715;DHT22;8977;50.902;4.314;2023-02-28T16:17:08;9.30;92.60
17715;DHT22;8977;50.902;4.314;2023-02-28T16:19:39;9.10;92.90
17715;DHT22;8977;50.902;4.314;2023-02-28T16:22:08;9.00;92.80
17715;DHT22;8977;50.902;4.314;2023-02-28T16:24:35;8.90;93.20
17715;DHT22;8977;50.902;4.314;2023-02-28T16:27:02;8.80;92.90
17715;DHT22;8977;50.902;4.314;2023-02-28T16:29:33;8.80;93.40
17715;DHT22;8977;50.902;4.314;2023-02-28T16:32:01;8.70;93.50
17715;DHT22;8977;50.902;4.314;2023-02-28T16:34:30;8.70;93.50
17715;DHT22;8977;50.902;4.314;2023-02-28T16:36:57;8.70;93.60
17715;DHT22;8977;50.902;4.314;2023-02-28T16:39:24;8.60;94.00
17715;DHT22;8977;50.902;4.314;2023-02-28T16:41:51;8.70;93.90
17715;DHT22;8977;50.902;4.314;2023-02-28T16:44:26;8.60;93.90
17715;DHT22;8977;50.902;4.314;2023-02-28T16:46:55;8.60;93.90
17715;DHT22;8977;50.902;4.314;2023-02-28T16:49:22;8.50;94.00
17715;DHT22;8977;50.902;4.314;2023-02-28T16:51:49;8.50;94.20